createdAt,value
2018-06-04T00:02:23.160Z,14.77
2018-06-04T00:04:51.551Z,14.50
2018-06-04T00:07:19.955Z,14.97
2018-06-04T00:09:48.369Z,15.03
2018-06-04T00:12:16.796Z,14.50
2018-06-04T00:14:45.183Z,15.50
2018-06-04T00:17:13.590Z,14.40
2018-06-04T00:19:41.993Z,15.67
2018-06-04T00:22:10.367Z,15.30
2018-06-04T00:24:38.778Z,14.83
2018-06-04T00:27:07.188Z,14.83
2018-06-04T00:29:35.621Z,14.63
2018-06-04T00:32:04.014Z,17.60
2018-06-04T00:34:32.446Z,15.17
2018-06-04T00:37:00.845Z,15.10
2018-06-04T00:39:29.234Z,14.90
2018-06-04T00:41:57.626Z,14.83
2018-06-04T00:44:26.018Z,15.80
2018-06-04T00:46:54.483Z,15.47
2018-06-04T00:49:22.595Z,15.43
2018-06-04T00:51:50.950Z,16.13
2018-06-04T00:54:19.334Z,15.70
2018-06-04T00:56:47.698Z,16.30
2018-06-04T00:59:16.103Z,14.90
2018-06-04T01:01:44.564Z,16.43
2018-06-04T01:04:12.939Z,14.87
2018-06-04T01:06:41.299Z,16.77
2018-06-04T01:09:09.727Z,16.40
2018-06-04T01:11:38.095Z,15.17
2018-06-04T01:14:06.506Z,17.00
2018-06-04T01:16:34.914Z,15.90
2018-06-04T01:19:03.323Z,16.20
2018-06-04T01:21:31.719Z,16.70
2018-06-04T01:24:00.149Z,15.90
2018-06-04T01:26:28.559Z,16.20
2018-06-04T01:28:56.940Z,16.90
2018-06-04T01:31:25.367Z,16.57
2018-06-04T01:33:53.739Z,15.47
2018-06-04T01:36:22.124Z,15.63
2018-06-04T01:38:50.574Z,16.50
2018-06-04T01:41:19.029Z,15.43
2018-06-04T01:43:47.431Z,20.90
2018-06-04T01:46:15.896Z,15.90
2018-06-04T01:48:44.370Z,15.67
2018-06-04T01:51:12.761Z,16.57
2018-06-04T01:53:41.245Z,15.83
2018-06-04T01:56:09.661Z,16.93
2018-06-04T01:58:38.033Z,17.37
2018-06-04T02:01:06.498Z,17.23
2018-06-04T02:03:34.890Z,16.17
2018-06-04T02:06:03.295Z,16.43
2018-06-04T02:08:31.745Z,16.80
2018-06-04T02:11:00.135Z,17.53
2018-06-04T02:13:31.938Z,16.37
2018-06-04T02:16:00.367Z,16.63
2018-06-04T02:18:28.779Z,19.43
2018-06-04T02:20:57.223Z,16.37
2018-06-04T02:23:25.607Z,17.90
2018-06-04T02:25:54.078Z,17.33
2018-06-04T02:28:23.107Z,18.63
2018-06-04T02:30:51.548Z,17.97
2018-06-04T02:33:19.984Z,17.17
2018-06-04T02:35:48.467Z,17.63
2018-06-04T02:38:16.928Z,17.30
2018-06-04T02:40:45.367Z,17.50
2018-06-04T02:43:13.819Z,20.93
2018-06-04T02:45:42.194Z,18.03
2018-06-04T02:48:10.622Z,19.27
2018-06-04T02:50:39.113Z,17.20
2018-06-04T02:53:07.566Z,19.17
2018-06-04T02:55:35.999Z,15.83
2018-06-04T02:58:04.499Z,17.63
2018-06-04T03:00:32.931Z,21.40
2018-06-04T03:03:01.428Z,18.53
2018-06-04T03:05:29.863Z,17.77
2018-06-04T03:07:58.299Z,17.40
2018-06-04T03:10:26.751Z,18.37
2018-06-04T03:12:55.288Z,17.57
2018-06-04T03:15:23.728Z,16.93
2018-06-04T03:17:52.199Z,17.50
2018-06-04T03:20:20.626Z,17.70
2018-06-04T03:22:49.024Z,17.80
2018-06-04T03:25:17.482Z,18.63
2018-06-04T03:27:45.923Z,18.40
2018-06-04T03:30:14.342Z,18.90
2018-06-04T03:32:42.838Z,17.13
2018-06-04T03:35:11.274Z,19.97
2018-06-04T03:37:39.699Z,18.37
2018-06-04T03:40:08.175Z,17.90
2018-06-04T03:42:36.603Z,16.57
2018-06-04T03:45:05.076Z,17.00
2018-06-04T03:47:33.534Z,18.47
2018-06-04T03:50:01.944Z,17.57
2018-06-04T03:52:30.367Z,17.83
2018-06-04T03:54:58.843Z,19.50
2018-06-04T03:57:27.259Z,19.53
2018-06-04T03:59:55.703Z,17.10
2018-06-04T04:02:24.167Z,19.90
2018-06-04T04:04:52.592Z,18.10
2018-06-04T04:07:21.092Z,18.30
2018-06-04T04:09:49.567Z,22.73
2018-06-04T04:12:17.989Z,17.03
2018-06-04T04:14:46.408Z,18.77
2018-06-04T04:17:14.929Z,18.60
2018-06-04T04:19:43.325Z,18.67
2018-06-04T04:22:11.774Z,19.80
2018-06-04T04:24:40.226Z,18.30
2018-06-04T04:27:08.639Z,21.63
2018-06-04T04:29:37.045Z,19.43
2018-06-04T04:32:05.459Z,20.00
2018-06-04T04:34:33.838Z,31.10
2018-06-04T04:37:02.206Z,20.80
2018-06-04T04:39:30.630Z,25.53
2018-06-04T04:41:59.018Z,16.37
2018-06-04T04:44:27.378Z,20.47
2018-06-04T04:46:55.927Z,17.97
2018-06-04T04:49:24.310Z,17.47
2018-06-04T04:51:52.670Z,21.10
2018-06-04T04:54:21.071Z,17.73
2018-06-04T04:56:49.482Z,17.40
2018-06-04T04:59:17.859Z,19.53
2018-06-04T05:01:46.278Z,16.77
2018-06-04T05:04:14.946Z,18.33
2018-06-04T05:06:43.379Z,18.43
2018-06-04T05:09:11.841Z,18.03
2018-06-04T05:11:40.462Z,17.93
2018-06-04T05:14:09.098Z,17.07
2018-06-04T05:16:37.622Z,17.60
2018-06-04T05:19:06.063Z,17.27
2018-06-04T05:21:34.544Z,16.90
2018-06-04T05:24:03.026Z,19.77
2018-06-04T05:26:31.775Z,19.60
2018-06-04T05:29:00.193Z,18.60
2018-06-04T05:31:28.645Z,16.77
2018-06-04T05:33:57.135Z,20.87
2018-06-04T05:36:25.659Z,18.93
2018-06-04T05:38:54.267Z,16.77
2018-06-04T05:41:22.741Z,17.50
2018-06-04T05:43:51.329Z,18.60
2018-06-04T05:46:19.843Z,23.73
2018-06-04T05:48:48.357Z,18.10
2018-06-04T05:51:17.158Z,17.00
2018-06-04T05:53:45.242Z,17.20
2018-06-04T05:56:13.664Z,22.80
2018-06-04T05:58:42.174Z,28.77
2018-06-04T06:01:10.548Z,19.70
2018-06-04T06:03:39.041Z,17.03
2018-06-04T06:06:18.514Z,15.90
2018-06-04T06:08:47.002Z,19.27
2018-06-04T06:11:15.596Z,17.97
2018-06-04T06:13:44.139Z,16.70
2018-06-04T06:16:12.487Z,17.37
2018-06-04T06:18:40.854Z,19.37
2018-06-04T06:21:09.286Z,16.80
2018-06-04T06:23:37.634Z,15.80
2018-06-04T06:26:06.047Z,16.93
2018-06-04T06:28:34.487Z,15.83
2018-06-04T06:31:02.914Z,16.20
2018-06-04T06:33:31.314Z,15.63
2018-06-04T06:35:59.765Z,15.87
2018-06-04T06:38:27.867Z,15.40
2018-06-04T06:40:56.246Z,16.17
2018-06-04T06:43:24.664Z,15.77
2018-06-04T06:45:53.110Z,16.00
2018-06-04T06:48:21.500Z,16.57
2018-06-04T06:50:49.937Z,19.93
2018-06-04T06:53:18.315Z,16.70
2018-06-04T06:55:46.679Z,15.23
2018-06-04T06:58:15.143Z,14.50
2018-06-04T07:00:43.506Z,14.10
2018-06-04T07:03:11.871Z,14.80
2018-06-04T07:05:40.321Z,13.97
2018-06-04T07:08:08.699Z,14.90
2018-06-04T07:10:37.065Z,14.53
2018-06-04T07:13:05.522Z,14.80
2018-06-04T07:15:33.895Z,16.10
2018-06-04T07:18:02.283Z,15.17
2018-06-04T07:20:30.685Z,15.20
2018-06-04T07:22:59.098Z,13.50
2018-06-04T07:25:27.511Z,13.90
2018-06-04T07:27:55.921Z,13.27
2018-06-04T07:30:24.297Z,13.23
2018-06-04T07:32:52.735Z,13.00
2018-06-04T07:35:21.172Z,12.97
2018-06-04T07:37:49.545Z,13.43
2018-06-04T07:40:17.632Z,13.73
2018-06-04T07:42:46.073Z,12.27
2018-06-04T07:45:14.478Z,13.83
2018-06-04T07:47:42.858Z,12.70
2018-06-04T07:50:15.914Z,13.70
2018-06-04T07:52:44.873Z,13.40
2018-06-04T07:55:13.263Z,14.70
2018-06-04T07:57:41.691Z,12.00
2018-06-04T08:00:10.126Z,12.10
2018-06-04T08:02:38.557Z,14.10
2018-06-04T08:05:06.965Z,12.20
2018-06-04T08:07:35.374Z,13.87
2018-06-04T08:10:03.926Z,12.10
2018-06-04T08:12:32.382Z,12.00
2018-06-04T08:15:01.004Z,13.60
2018-06-04T08:17:29.426Z,13.20
2018-06-04T08:19:57.911Z,11.90
2018-06-04T08:22:26.310Z,13.10
2018-06-04T08:24:54.761Z,11.50
2018-06-04T08:27:23.170Z,11.50
2018-06-04T08:29:51.585Z,12.70
2018-06-04T08:32:20.053Z,12.33
2018-06-04T08:34:48.444Z,12.95
2018-06-04T08:37:17.204Z,13.60
2018-06-04T08:39:45.631Z,12.05
2018-06-04T08:42:14.034Z,12.15
2018-06-04T08:44:42.427Z,12.35
2018-06-04T08:47:10.860Z,12.82
2018-06-04T08:49:39.275Z,12.70
2018-06-04T08:52:07.779Z,11.30
2018-06-04T08:54:36.309Z,12.43
2018-06-04T08:57:04.725Z,12.33
2018-06-04T08:59:33.217Z,12.95
2018-06-04T09:02:02.647Z,13.10
2018-06-04T09:04:31.060Z,12.30
2018-06-04T09:06:59.497Z,11.03
2018-06-04T09:09:27.937Z,13.05
2018-06-04T09:11:56.421Z,11.85
2018-06-04T09:14:24.846Z,14.28
2018-06-04T09:16:53.246Z,13.08
2018-06-04T09:19:21.687Z,12.15
2018-06-04T09:21:50.139Z,12.23
2018-06-04T09:24:18.519Z,13.43
2018-06-04T09:26:46.942Z,14.13
2018-06-04T09:29:15.350Z,12.30
2018-06-04T09:31:43.879Z,12.28
2018-06-04T09:34:12.256Z,13.50
2018-06-04T09:36:40.675Z,13.55
2018-06-04T09:39:09.154Z,11.70
2018-06-04T09:41:37.534Z,13.88
2018-06-04T09:44:05.952Z,12.73
2018-06-04T09:46:34.374Z,13.18
2018-06-04T09:49:02.805Z,12.10
2018-06-04T09:51:31.236Z,12.43
2018-06-04T09:53:59.829Z,12.35
2018-06-04T09:56:28.219Z,13.17
2018-06-04T09:58:56.694Z,12.20
2018-06-04T10:01:25.182Z,12.30
2018-06-04T10:03:56.762Z,12.47
2018-06-04T10:06:25.222Z,11.90
2018-06-04T10:08:53.783Z,11.33
2018-06-04T10:11:22.318Z,11.93
2018-06-04T10:13:50.882Z,12.67
2018-06-04T10:16:19.282Z,13.07
2018-06-04T10:18:47.878Z,12.20
2018-06-04T10:21:15.965Z,11.80
2018-06-04T10:23:44.475Z,10.67
2018-06-04T10:26:12.951Z,11.33
2018-06-04T10:28:41.578Z,11.97
2018-06-04T10:31:10.103Z,12.00
2018-06-04T10:33:38.656Z,12.10
2018-06-04T10:36:07.269Z,12.00
2018-06-04T10:38:35.706Z,13.53
2018-06-04T10:41:04.158Z,12.97
2018-06-04T10:43:32.742Z,12.03
2018-06-04T10:46:01.194Z,9.63
2018-06-04T10:48:29.661Z,9.37
2018-06-04T10:50:58.200Z,9.63
2018-06-04T10:53:26.811Z,9.70
2018-06-04T10:55:55.454Z,9.43
2018-06-04T10:58:23.859Z,9.30
2018-06-04T11:00:52.245Z,10.50
2018-06-04T11:03:20.754Z,11.47
2018-06-04T11:05:49.258Z,11.47
2018-06-04T11:08:17.768Z,10.30
2018-06-04T11:10:46.477Z,8.60
2018-06-04T11:13:14.905Z,12.03
2018-06-04T11:15:43.508Z,8.97
2018-06-04T11:18:11.978Z,8.40
2018-06-04T11:20:40.792Z,7.47
2018-06-04T11:23:09.693Z,7.17
2018-06-04T11:25:38.108Z,8.30
2018-06-04T11:28:06.518Z,8.60
2018-06-04T11:30:34.946Z,7.10
2018-06-04T11:33:03.360Z,9.17
2018-06-04T11:35:31.739Z,9.37
2018-06-04T11:38:00.182Z,8.60
2018-06-04T11:40:28.550Z,11.60
2018-06-04T11:42:56.947Z,10.17
2018-06-04T11:45:25.346Z,9.97
2018-06-04T11:47:53.713Z,10.80
2018-06-04T11:50:22.083Z,11.00
2018-06-04T11:52:50.486Z,10.93
2018-06-04T11:55:18.842Z,8.93
2018-06-04T11:57:47.251Z,11.30
2018-06-04T12:00:15.598Z,8.73
2018-06-04T12:02:43.963Z,7.73
2018-06-04T12:05:12.419Z,12.00
2018-06-04T12:07:40.754Z,9.03
2018-06-04T12:10:09.129Z,11.40
2018-06-04T12:12:37.533Z,10.63
2018-06-04T12:15:05.913Z,11.20
2018-06-04T12:17:34.329Z,9.20
2018-06-04T12:20:02.736Z,8.97
2018-06-04T12:22:30.835Z,9.53
2018-06-04T12:24:59.203Z,8.83
2018-06-04T12:27:27.701Z,8.90
2018-06-04T12:29:56.089Z,8.63
2018-06-04T12:32:24.427Z,7.73
2018-06-04T12:34:52.867Z,17.23
2018-06-04T12:37:21.234Z,8.83
2018-06-04T12:39:49.590Z,8.70
2018-06-04T12:42:18.006Z,7.83
2018-06-04T12:44:46.377Z,7.70
2018-06-04T12:47:14.742Z,7.27
2018-06-04T12:49:43.277Z,7.10
2018-06-04T12:52:11.775Z,7.20
2018-06-04T12:54:40.392Z,7.83
2018-06-04T12:57:09.134Z,8.13
2018-06-04T12:59:37.480Z,7.60
2018-06-04T13:02:05.914Z,8.83
2018-06-04T13:04:34.501Z,8.50
2018-06-04T13:07:02.918Z,8.03
2018-06-04T13:09:31.319Z,8.87
2018-06-04T13:11:59.687Z,9.17
2018-06-04T13:14:28.095Z,9.40
2018-06-04T13:16:56.466Z,8.13
2018-06-04T13:19:24.820Z,10.53
2018-06-04T13:21:53.255Z,8.17
2018-06-04T13:24:21.633Z,8.13
2018-06-04T13:26:49.997Z,8.53
2018-06-04T13:29:18.374Z,7.47
2018-06-04T13:31:46.746Z,8.20
2018-06-04T13:34:15.107Z,8.30
2018-06-04T13:36:43.510Z,7.83
2018-06-04T13:39:11.867Z,8.13
2018-06-04T13:41:40.225Z,7.40
2018-06-04T13:44:08.633Z,7.50
2018-06-04T13:46:36.977Z,8.23
2018-06-04T13:49:05.337Z,7.93
2018-06-04T13:51:33.767Z,7.30
2018-06-04T13:54:02.125Z,7.87
2018-06-04T13:56:30.498Z,6.83
2018-06-04T13:58:58.941Z,6.60
2018-06-04T14:01:27.325Z,6.67
2018-06-04T14:03:55.686Z,34.77
2018-06-04T14:06:24.086Z,8.70
2018-06-04T14:08:52.509Z,9.67
2018-06-04T14:11:20.864Z,7.77
2018-06-04T14:13:49.324Z,7.60
2018-06-04T14:16:17.694Z,7.37
2018-06-04T14:18:46.047Z,7.10
2018-06-04T14:21:14.442Z,8.90
2018-06-04T14:23:42.802Z,8.57
2018-06-04T14:26:11.154Z,8.00
2018-06-04T14:28:39.553Z,8.37
2018-06-04T14:31:07.913Z,7.70
2018-06-04T14:33:36.294Z,7.93
2018-06-04T14:36:04.742Z,8.10
2018-06-04T14:38:33.126Z,7.77
2018-06-04T14:41:01.520Z,7.60
2018-06-04T14:43:30.094Z,9.30
2018-06-04T14:45:58.478Z,8.43
2018-06-04T14:48:26.874Z,7.93
2018-06-04T14:50:55.308Z,7.80
2018-06-04T14:53:23.712Z,7.40
2018-06-04T14:55:52.130Z,12.03
2018-06-04T14:58:20.557Z,8.07
2018-06-04T15:00:48.942Z,8.37
2018-06-04T15:03:17.329Z,8.00
2018-06-04T15:05:45.754Z,8.13
2018-06-04T15:08:14.146Z,8.20
2018-06-04T15:10:42.537Z,8.70
2018-06-04T15:13:10.961Z,9.10
2018-06-04T15:15:39.362Z,8.07
2018-06-04T15:18:07.766Z,9.23
2018-06-04T15:20:36.229Z,16.67
2018-06-04T15:23:04.621Z,8.37
2018-06-04T15:25:33.029Z,8.17
2018-06-04T15:28:01.471Z,7.67
2018-06-04T15:30:29.885Z,8.20
2018-06-04T15:32:58.336Z,6.90
2018-06-04T15:35:27.117Z,8.10
2018-06-04T15:37:55.604Z,6.97
2018-06-04T15:40:23.990Z,11.63
2018-06-04T15:42:52.429Z,6.93
2018-06-04T15:45:20.830Z,8.93
2018-06-04T15:47:49.290Z,8.40
2018-06-04T15:50:17.739Z,6.23
2018-06-04T15:52:46.138Z,6.37
2018-06-04T15:55:14.593Z,8.30
2018-06-04T15:57:42.990Z,34.53
2018-06-04T16:00:11.377Z,7.10
2018-06-04T16:02:39.801Z,8.77
2018-06-04T16:05:08.517Z,6.10
2018-06-04T16:07:37.014Z,6.80
2018-06-04T16:10:05.407Z,6.00
2018-06-04T16:12:33.859Z,5.43
2018-06-04T16:15:01.944Z,5.93
2018-06-04T16:17:30.373Z,6.73
2018-06-04T16:19:58.754Z,6.23
2018-06-04T16:22:27.189Z,6.00
2018-06-04T16:24:55.563Z,6.47
2018-06-04T16:27:23.993Z,5.60
2018-06-04T16:29:52.379Z,6.30
2018-06-04T16:32:20.801Z,5.00
2018-06-04T16:34:49.198Z,5.30
2018-06-04T16:37:17.724Z,8.90
2018-06-04T16:39:46.078Z,4.90
2018-06-04T16:42:14.493Z,4.77
2018-06-04T16:44:42.880Z,5.90
2018-06-04T16:47:11.303Z,5.03
2018-06-04T16:49:39.706Z,5.60
2018-06-04T16:52:08.133Z,5.60
2018-06-04T16:54:36.534Z,7.50
2018-06-04T16:57:05.077Z,6.53
2018-06-04T16:59:33.561Z,5.60
2018-06-04T17:02:01.918Z,6.30
2018-06-04T17:04:30.349Z,8.57
2018-06-04T17:06:58.737Z,6.03
2018-06-04T17:09:27.157Z,6.00
2018-06-04T17:11:55.570Z,19.30
2018-06-04T17:14:23.994Z,13.23
2018-06-04T17:16:52.376Z,8.40
2018-06-04T17:19:20.817Z,7.13
2018-06-04T17:21:49.192Z,6.77
2018-06-04T17:24:17.629Z,8.43
2018-06-04T17:26:46.021Z,7.70
2018-06-04T17:29:14.434Z,8.43
2018-06-04T17:31:42.836Z,7.70
2018-06-04T17:34:11.272Z,7.90
2018-06-04T17:36:39.719Z,7.80
2018-06-04T17:39:08.593Z,9.27
2018-06-04T17:41:37.192Z,8.67
2018-06-04T17:44:05.620Z,8.50
2018-06-04T17:46:34.006Z,8.17
2018-06-04T17:49:02.434Z,8.57
2018-06-04T17:51:30.857Z,9.00
2018-06-04T17:54:00.127Z,12.50
2018-06-04T17:56:28.491Z,19.10
2018-06-04T17:58:56.921Z,9.03
2018-06-04T18:01:25.374Z,8.10
2018-06-04T18:03:53.784Z,8.57
2018-06-04T18:06:22.214Z,8.10
2018-06-04T18:08:50.593Z,9.70
2018-06-04T18:11:19.050Z,14.60
2018-06-04T18:13:47.513Z,17.50
2018-06-04T18:16:15.965Z,8.73
2018-06-04T18:18:44.364Z,8.03
2018-06-04T18:21:12.793Z,6.90
2018-06-04T18:23:41.186Z,8.73
2018-06-04T18:26:09.622Z,7.87
2018-06-04T18:28:38.021Z,8.67
2018-06-04T18:31:07.201Z,11.57
2018-06-04T18:33:35.589Z,8.37
2018-06-04T18:36:04.049Z,12.87
2018-06-04T18:38:32.434Z,13.03
2018-06-04T18:41:00.821Z,10.70
2018-06-04T18:43:29.202Z,8.80
2018-06-04T18:45:57.610Z,9.60
2018-06-04T18:48:25.977Z,8.50
2018-06-04T18:50:54.394Z,11.67
2018-06-04T18:53:22.757Z,8.87
2018-06-04T18:55:51.122Z,9.47
2018-06-04T18:58:19.559Z,8.97
2018-06-04T19:00:47.982Z,8.53
2018-06-04T19:03:16.382Z,8.77
2018-06-04T19:05:44.770Z,11.03
2018-06-04T19:08:13.177Z,10.03
2018-06-04T19:10:41.554Z,9.77
2018-06-04T19:13:09.942Z,9.53
2018-06-04T19:15:38.345Z,9.33
2018-06-04T19:18:06.934Z,20.57
2018-06-04T19:20:36.173Z,17.00
2018-06-04T19:23:04.568Z,12.00
2018-06-04T19:25:32.935Z,9.70
2018-06-04T19:28:01.342Z,10.00
2018-06-04T19:30:29.750Z,10.13
2018-06-04T19:32:58.269Z,9.97
2018-06-04T19:35:26.626Z,10.03
2018-06-04T19:37:55.066Z,9.87
2018-06-04T19:40:23.528Z,9.90
2018-06-04T19:42:51.969Z,11.03
2018-06-04T19:45:20.402Z,10.20
2018-06-04T19:47:48.854Z,9.83
2018-06-04T19:50:17.271Z,10.97
2018-06-04T19:52:45.738Z,11.17
2018-06-04T19:55:14.150Z,10.30
2018-06-04T19:57:42.594Z,10.43
2018-06-04T20:00:11.081Z,10.27
2018-06-04T20:02:39.502Z,10.27
2018-06-04T20:05:07.937Z,11.03
2018-06-04T20:07:36.337Z,10.20
2018-06-04T20:10:04.813Z,10.00
2018-06-04T20:12:33.230Z,11.10
2018-06-04T20:15:01.687Z,9.57
2018-06-04T20:17:30.116Z,10.70
2018-06-04T20:19:58.544Z,21.23
2018-06-04T20:22:26.971Z,40.67
2018-06-04T20:24:55.408Z,15.03
2018-06-04T20:27:23.802Z,11.63
2018-06-04T20:29:52.309Z,10.47
2018-06-04T20:32:20.693Z,10.07
2018-06-04T20:34:49.133Z,11.17
2018-06-04T20:37:17.542Z,10.23
2018-06-04T20:39:45.988Z,10.77
2018-06-04T20:42:14.419Z,11.27
2018-06-04T20:44:42.846Z,9.90
2018-06-04T20:47:11.263Z,10.50
2018-06-04T20:49:39.710Z,23.07
2018-06-04T20:52:08.130Z,43.23
2018-06-04T20:54:36.273Z,12.50
2018-06-04T20:57:04.673Z,11.10
2018-06-04T20:59:33.076Z,10.33
2018-06-04T21:02:01.587Z,10.70
2018-06-04T21:04:29.958Z,10.40
2018-06-04T21:06:58.384Z,9.17
2018-06-04T21:09:26.774Z,10.43
2018-06-04T21:11:55.274Z,8.70
2018-06-04T21:14:23.670Z,8.70
2018-06-04T21:16:52.098Z,9.50
2018-06-04T21:19:20.480Z,9.70
2018-06-04T21:21:48.905Z,9.00
2018-06-04T21:24:17.307Z,9.47
2018-06-04T21:26:45.740Z,9.77
2018-06-04T21:29:14.178Z,10.20
2018-06-04T21:31:42.594Z,9.23
2018-06-04T21:34:10.969Z,9.13
2018-06-04T21:36:39.382Z,9.53
2018-06-04T21:39:07.820Z,9.67
2018-06-04T21:41:36.239Z,9.97
2018-06-04T21:44:04.617Z,10.03
2018-06-04T21:46:33.018Z,10.23
2018-06-04T21:49:01.399Z,10.33
2018-06-04T21:51:29.844Z,9.83
2018-06-04T21:53:58.205Z,9.67
2018-06-04T21:56:26.581Z,10.40
2018-06-04T21:58:54.990Z,10.70
2018-06-04T22:01:23.361Z,10.63
2018-06-04T22:03:51.753Z,9.67
2018-06-04T22:06:20.120Z,12.40
2018-06-04T22:08:48.540Z,10.97
2018-06-04T22:11:16.935Z,11.23
2018-06-04T22:13:45.349Z,10.47
2018-06-04T22:16:13.714Z,11.90
2018-06-04T22:18:42.122Z,10.37
2018-06-04T22:21:10.553Z,11.17
2018-06-04T22:23:38.958Z,10.70
2018-06-04T22:26:07.330Z,11.33
2018-06-04T22:28:35.733Z,11.20
2018-06-04T22:31:04.142Z,11.37
2018-06-04T22:33:32.577Z,11.10
2018-06-04T22:36:00.945Z,12.20
2018-06-04T22:38:29.349Z,11.73
2018-06-04T22:40:57.706Z,11.10
2018-06-04T22:43:26.114Z,11.90
2018-06-04T22:45:54.497Z,11.20
2018-06-04T22:48:22.925Z,12.53
2018-06-04T22:50:51.325Z,13.07
2018-06-04T22:53:19.729Z,12.80
2018-06-04T22:55:48.103Z,12.90
2018-06-04T22:58:16.462Z,13.93
2018-06-04T23:00:44.901Z,13.03
2018-06-04T23:03:13.329Z,13.27
2018-06-04T23:05:41.738Z,14.53
2018-06-04T23:08:10.096Z,13.17
2018-06-04T23:10:38.529Z,13.80
2018-06-04T23:13:06.905Z,13.03
2018-06-04T23:15:35.294Z,13.33
2018-06-04T23:18:03.671Z,13.40
2018-06-04T23:20:32.065Z,13.60
2018-06-04T23:23:00.449Z,14.13
2018-06-04T23:25:28.860Z,13.33
2018-06-04T23:27:57.238Z,14.97
2018-06-04T23:30:25.649Z,14.40
2018-06-04T23:32:54.017Z,15.33
2018-06-04T23:35:22.429Z,14.70
2018-06-04T23:37:50.798Z,14.33
2018-06-04T23:40:19.193Z,13.83
2018-06-04T23:42:47.622Z,14.33
2018-06-04T23:45:16.030Z,14.60
2018-06-04T23:47:44.433Z,15.13
2018-06-04T23:50:12.797Z,15.50
2018-06-04T23:52:41.190Z,15.83
2018-06-04T23:55:09.553Z,14.83
2018-06-04T23:57:37.909Z,14.87
